Time,TemperatureF,DewpointF,PressureIn,WindDirection,WindDirectionDegrees,WindSpeedMPH,WindSpeedGustMPH,Humidity,HourlyPrecipIn,Conditions,Clouds,dailyrainin,SoftwareType,DateUTC
2013-10-03 00:03:00,47.1,46.8,29.89,WSW,253,1.0,1.0,99,0.00,,,0.00,Wunderground v.1.15,2013-10-03 07:03:00,
2013-10-03 00:09:00,47.1,47.1,29.89,WSW,253,0.0,1.0,100,0.00,,,0.00,Wunderground v.1.15,2013-10-03 07:09:00,
2013-10-03 00:14:00,47.1,47.1,29.89,WSW,253,0.0,0.0,100,0.00,,,0.00,Wunderground v.1.15,2013-10-03 07:14:00,
2013-10-03 00:20:00,46.7,46.7,29.88,WSW,253,0.0,0.0,100,0.00,,,0.00,Wunderground v.1.15,2013-10-03 07:20:00,
2013-10-03 00:25:00,46.1,46.1,29.88,WSW,253,1.0,1.0,100,0.00,,,0.00,Wunderground v.1.15,2013-10-03 07:25:00,
2013-10-03 00:30:00,46.0,46.0,29.89,WSW,253,0.0,0.0,100,0.00,,,0.00,Wunderground v.1.15,2013-10-03 07:30:00,
2013-10-03 00:35:00,46.0,46.0,29.89,WSW,253,0.0,0.0,100,0.00,,,0.00,Wunderground v.1.15,2013-10-03 07:35:00,
2013-10-03 00:41:00,46.2,46.2,29.89,WSW,253,0.0,0.0,100,0.00,,,0.00,Wunderground v.1.15,2013-10-03 07:41:00,
2013-10-03 00:46:00,46.4,46.4,29.89,WSW,253,0.0,0.0,100,0.00,,,0.00,Wunderground v.1.15,2013-10-03 07:46:00,
2013-10-03 00:51:00,47.0,47.0,29.89,WSW,253,0.0,0.0,100,0.00,,,0.00,Wunderground v.1.15,2013-10-03 07:51:00,
2013-10-03 00:57:00,47.1,47.1,29.89,WSW,253,0.0,0.0,100,0.00,,,0.00,Wunderground v.1.15,2013-10-03 07:57:00,
2013-10-03 01:02:00,47.1,47.1,29.89,WSW,253,0.0,0.0,100,0.00,,,0.00,Wunderground v.1.15,2013-10-03 08:02:00,
2013-10-03 01:08:00,46.7,46.7,29.89,WSW,253,0.0,0.0,100,0.00,,,0.00,Wunderground v.1.15,2013-10-03 08:08:00,
2013-10-03 01:13:00,46.4,46.4,29.89,WSW,253,0.0,0.0,100,0.00,,,0.00,Wunderground v.1.15,2013-10-03 08:13:00,
2013-10-03 01:18:00,46.2,46.2,29.88,WSW,253,0.0,0.0,100,0.00,,,0.00,Wunderground v.1.15,2013-10-03 08:18:00,
2013-10-03 01:24:00,45.7,45.7,29.88,WSW,253,0.0,0.0,100,0.00,,,0.00,Wunderground v.1.15,2013-10-03 08:24:00,
2013-10-03 01:29:00,45.4,45.4,29.88,WSW,253,0.0,0.0,100,0.00,,,0.00,Wunderground v.1.15,2013-10-03 08:29:00,
2013-10-03 01:34:00,45.1,45.1,29.87,WSW,253,0.0,0.0,100,0.00,,,0.00,Wunderground v.1.15,2013-10-03 08:34:00,
2013-10-03 01:40:00,44.6,44.6,29.87,WSW,253,0.0,0.0,100,0.00,,,0.00,Wunderground v.1.15,2013-10-03 08:40:00,
2013-10-03 01:45:00,44.5,44.5,29.88,WSW,253,0.0,0.0,100,0.00,,,0.00,Wunderground v.1.15,2013-10-03 08:45:00,
2013-10-03 01:50:00,44.5,44.5,29.88,WSW,253,0.0,0.0,100,0.00,,,0.00,Wunderground v.1.15,2013-10-03 08:50:00,
2013-10-03 01:55:00,44.6,44.6,29.88,WSW,253,0.0,0.0,100,0.00,,,0.00,Wunderground v.1.15,2013-10-03 08:55:00,
2013-10-03 02:01:00,44.8,44.8,29.88,WSW,253,0.0,0.0,100,0.00,,,0.00,Wunderground v.1.15,2013-10-03 09:01:00,
2013-10-03 02:06:00,45.1,45.1,29.88,WSW,253,0.0,0.0,100,0.00,,,0.00,Wunderground v.1.15,2013-10-03 09:06:00,
2013-10-03 02:11:00,45.7,45.7,29.88,WSW,253,0.0,0.0,100,0.00,,,0.00,Wunderground v.1.15,2013-10-03 09:11:00,
2013-10-03 02:16:00,45.8,45.8,29.89,WSW,253,0.0,0.0,100,0.00,,,0.00,Wunderground v.1.15,2013-10-03 09:16:00,
2013-10-03 02:21:00,45.7,45.7,29.89,WSW,253,0.0,0.0,100,0.00,,,0.00,Wunderground v.1.15,2013-10-03 09:21:00,
2013-10-03 02:26:00,45.7,45.7,29.89,WSW,253,0.0,0.0,100,0.00,,,0.00,Wunderground v.1.15,2013-10-03 09:26:00,
2013-10-03 02:31:00,45.5,45.5,29.88,WSW,253,0.0,0.0,100,0.00,,,0.00,Wunderground v.1.15,2013-10-03 09:31:00,
2013-10-03 02:36:00,45.2,45.2,29.88,WSW,253,0.0,0.0,100,0.00,,,0.00,Wunderground v.1.15,2013-10-03 09:36:00,
2013-10-03 02:41:00,45.1,45.1,29.88,WSW,253,0.0,0.0,100,0.00,,,0.00,Wunderground v.1.15,2013-10-03 09:41:00,
2013-10-03 02:46:00,44.8,44.8,29.88,WSW,253,0.0,0.0,100,0.00,,,0.00,Wunderground v.1.15,2013-10-03 09:46:00,
2013-10-03 02:51:00,44.6,44.6,29.88,WSW,253,0.0,0.0,100,0.00,,,0.00,Wunderground v.1.15,2013-10-03 09:51:00,
2013-10-03 02:56:00,44.5,44.5,29.88,WSW,253,0.0,0.0,100,0.00,,,0.00,Wunderground v.1.15,2013-10-03 09:56:00,
2013-10-03 03:01:00,44.5,44.5,29.87,WSW,253,0.0,0.0,100,0.00,,,0.00,Wunderground v.1.15,2013-10-03 10:01:00,
2013-10-03 03:06:00,43.9,43.9,29.87,WSW,253,0.0,0.0,100,0.00,,,0.00,Wunderground v.1.15,2013-10-03 10:06:00,
2013-10-03 03:11:00,43.6,43.6,29.87,WSW,253,0.0,0.0,100,0.00,,,0.00,Wunderground v.1.15,2013-10-03 10:11:00,
2013-10-03 03:16:00,43.3,43.3,29.87,WSW,253,0.0,0.0,100,0.00,,,0.01,Wunderground v.1.15,2013-10-03 10:16:00,
2013-10-03 03:21:00,43.2,43.2,29.87,WSW,253,0.0,0.0,100,0.00,,,0.01,Wunderground v.1.15,2013-10-03 10:21:00,
2013-10-03 03:26:00,42.9,42.9,29.87,WSW,253,0.0,0.0,100,0.00,,,0.01,Wunderground v.1.15,2013-10-03 10:26:00,
2013-10-03 03:31:00,42.9,42.9,29.88,WSW,253,0.0,0.0,100,0.00,,,0.01,Wunderground v.1.15,2013-10-03 10:31:00,
2013-10-03 03:36:00,42.8,42.8,29.88,WSW,253,0.0,0.0,100,0.00,,,0.01,Wunderground v.1.15,2013-10-03 10:36:00,
2013-10-03 03:41:00,42.8,42.8,29.88,WSW,253,0.0,0.0,100,0.00,,,0.01,Wunderground v.1.15,2013-10-03 10:41:00,
2013-10-03 03:46:00,42.9,42.9,29.87,WSW,253,0.0,0.0,100,0.00,,,0.01,Wunderground v.1.15,2013-10-03 10:46:00,
2013-10-03 03:51:00,43.2,43.2,29.87,WSW,253,0.0,0.0,100,0.00,,,0.01,Wunderground v.1.15,2013-10-03 10:51:00,
2013-10-03 03:56:00,43.5,43.5,29.87,WSW,253,0.0,0.0,100,0.00,,,0.01,Wunderground v.1.15,2013-10-03 10:56:00,
2013-10-03 04:01:00,43.8,43.8,29.87,WSW,253,0.0,0.0,100,0.00,,,0.01,Wunderground v.1.15,2013-10-03 11:01:00,
2013-10-03 04:06:00,43.6,43.6,29.87,WSW,253,0.0,0.0,100,0.00,,,0.01,Wunderground v.1.15,2013-10-03 11:06:00,
2013-10-03 04:11:00,43.6,43.6,29.87,WSW,253,0.0,0.0,100,0.00,,,0.01,Wunderground v.1.15,2013-10-03 11:11:00,
2013-10-03 04:16:00,43.6,43.6,29.87,WSW,253,0.0,0.0,100,0.00,,,0.01,Wunderground v.1.15,2013-10-03 11:16:00,
2013-10-03 04:21:00,43.3,43.3,29.87,WSW,253,0.0,0.0,100,0.00,,,0.01,Wunderground v.1.15,2013-10-03 11:21:00,
2013-10-03 04:26:00,43.2,43.2,29.87,WSW,253,0.0,0.0,100,0.00,,,0.01,Wunderground v.1.15,2013-10-03 11:26:00,
2013-10-03 04:31:00,43.1,43.1,29.86,WSW,253,0.0,0.0,100,0.00,,,0.01,Wunderground v.1.15,2013-10-03 11:31:00,
2013-10-03 04:36:00,43.1,43.1,29.86,WSW,253,0.0,0.0,100,0.00,,,0.01,Wunderground v.1.15,2013-10-03 11:36:00,
2013-10-03 04:41:00,43.1,43.1,29.86,WSW,253,0.0,0.0,100,0.00,,,0.01,Wunderground v.1.15,2013-10-03 11:41:00,
2013-10-03 04:46:00,43.1,43.1,29.86,WSW,253,0.0,0.0,100,0.00,,,0.01,Wunderground v.1.15,2013-10-03 11:46:00,
2013-10-03 04:51:00,43.1,43.1,29.86,WSW,253,0.0,0.0,100,0.00,,,0.01,Wunderground v.1.15,2013-10-03 11:51:00,
2013-10-03 04:56:00,43.2,43.2,29.86,WSW,253,0.0,0.0,100,0.00,,,0.01,Wunderground v.1.15,2013-10-03 11:56:00,
2013-10-03 05:01:00,43.3,43.3,29.87,WSW,253,0.0,0.0,100,0.00,,,0.01,Wunderground v.1.15,2013-10-03 12:01:00,
2013-10-03 05:06:00,43.5,43.5,29.87,WSW,253,0.0,0.0,100,0.00,,,0.01,Wunderground v.1.15,2013-10-03 12:06:00,
2013-10-03 05:11:00,43.2,43.2,29.87,WSW,253,0.0,0.0,100,0.00,,,0.01,Wunderground v.1.15,2013-10-03 12:11:00,
2013-10-03 05:16:00,42.6,42.6,29.87,WSW,253,0.0,0.0,100,0.00,,,0.01,Wunderground v.1.15,2013-10-03 12:16:00,
2013-10-03 05:21:00,42.3,42.3,29.87,WSW,253,0.0,0.0,100,0.00,,,0.01,Wunderground v.1.15,2013-10-03 12:21:00,
2013-10-03 05:26:00,41.9,41.9,29.87,WSW,253,0.0,1.0,100,0.00,,,0.01,Wunderground v.1.15,2013-10-03 12:26:00,
2013-10-03 05:31:00,41.9,41.9,29.87,WSW,253,0.0,0.0,100,0.00,,,0.01,Wunderground v.1.15,2013-10-03 12:31:00,
2013-10-03 05:36:00,42.1,42.1,29.87,WSW,253,0.0,0.0,100,0.00,,,0.01,Wunderground v.1.15,2013-10-03 12:36:00,
2013-10-03 05:41:00,42.5,42.5,29.87,WSW,253,0.0,0.0,100,0.00,,,0.01,Wunderground v.1.15,2013-10-03 12:41:00,
2013-10-03 05:46:00,42.8,42.8,29.87,WSW,253,0.0,0.0,100,0.00,,,0.01,Wunderground v.1.15,2013-10-03 12:46:00,
2013-10-03 05:51:00,42.9,42.9,29.87,WSW,253,0.0,0.0,100,0.00,,,0.01,Wunderground v.1.15,2013-10-03 12:51:00,
2013-10-03 05:56:00,43.1,43.1,29.87,WSW,253,0.0,0.0,100,0.00,,,0.01,Wunderground v.1.15,2013-10-03 12:56:00,
2013-10-03 06:01:00,42.6,42.6,29.87,WSW,253,0.0,0.0,100,0.00,,,0.01,Wunderground v.1.15,2013-10-03 13:01:00,
2013-10-03 06:06:00,42.1,42.1,29.87,WSW,253,0.0,0.0,100,0.00,,,0.01,Wunderground v.1.15,2013-10-03 13:06:00,
2013-10-03 06:12:00,41.6,41.6,29.87,WSW,253,0.0,0.0,100,0.00,,,0.01,Wunderground v.1.15,2013-10-03 13:12:00,
2013-10-03 06:17:00,41.2,41.2,29.88,WSW,253,0.0,0.0,100,0.00,,,0.01,Wunderground v.1.15,2013-10-03 13:17:00,
2013-10-03 06:22:00,40.8,40.8,29.88,WSW,253,0.0,0.0,100,0.00,,,0.01,Wunderground v.1.15,2013-10-03 13:22:00,
2013-10-03 06:27:00,40.5,40.5,29.88,WSW,253,0.0,0.0,100,0.00,,,0.01,Wunderground v.1.15,2013-10-03 13:27:00,
2013-10-03 06:32:00,40.3,40.3,29.88,WSW,253,0.0,0.0,100,0.00,,,0.01,Wunderground v.1.15,2013-10-03 13:32:00,
2013-10-03 06:37:00,40.2,40.2,29.88,WSW,253,0.0,1.0,100,0.00,,,0.01,Wunderground v.1.15,2013-10-03 13:37:00,
2013-10-03 06:42:00,40.2,40.2,29.88,WSW,253,1.0,1.0,100,0.00,,,0.01,Wunderground v.1.15,2013-10-03 13:42:00,
2013-10-03 06:47:00,40.3,40.3,29.88,WSW,253,0.0,1.0,100,0.00,,,0.01,Wunderground v.1.15,2013-10-03 13:47:00,
2013-10-03 06:52:00,40.5,40.5,29.88,WSW,253,0.0,0.0,100,0.00,,,0.01,Wunderground v.1.15,2013-10-03 13:52:00,
2013-10-03 06:57:00,40.6,40.6,29.88,WSW,253,0.0,0.0,100,0.00,,,0.01,Wunderground v.1.15,2013-10-03 13:57:00,
2013-10-03 07:02:00,40.8,40.8,29.88,WSW,253,0.0,0.0,100,0.00,,,0.01,Wunderground v.1.15,2013-10-03 14:02:00,
2013-10-03 07:07:00,40.9,40.9,29.88,WSW,253,0.0,0.0,100,0.00,,,0.01,Wunderground v.1.15,2013-10-03 14:07:00,
2013-10-03 07:12:00,41.2,41.2,29.88,WSW,253,0.0,0.0,100,0.00,,,0.01,Wunderground v.1.15,2013-10-03 14:12:00,
2013-10-03 07:17:00,41.5,41.5,29.88,WSW,253,0.0,0.0,100,0.00,,,0.01,Wunderground v.1.15,2013-10-03 14:17:00,
2013-10-03 07:22:00,41.9,41.9,29.88,WSW,253,0.0,0.0,100,0.00,,,0.01,Wunderground v.1.15,2013-10-03 14:22:00,
2013-10-03 07:27:00,41.9,41.9,29.88,WSW,253,0.0,0.0,100,0.00,,,0.01,Wunderground v.1.15,2013-10-03 14:27:00,
2013-10-03 07:32:00,41.6,41.6,29.88,WSW,253,0.0,0.0,100,0.00,,,0.01,Wunderground v.1.15,2013-10-03 14:32:00,
2013-10-03 07:37:00,41.6,41.6,29.88,WSW,253,0.0,0.0,100,0.00,,,0.01,Wunderground v.1.15,2013-10-03 14:37:00,
2013-10-03 07:42:00,41.9,41.9,29.88,WSW,253,0.0,0.0,100,0.00,,,0.01,Wunderground v.1.15,2013-10-03 14:42:00,
2013-10-03 07:47:00,42.5,42.5,29.88,WSW,253,0.0,0.0,100,0.00,,,0.01,Wunderground v.1.15,2013-10-03 14:47:00,
2013-10-03 07:52:00,42.9,42.9,29.88,WSW,253,0.0,0.0,100,0.00,,,0.01,Wunderground v.1.15,2013-10-03 14:52:00,
2013-10-03 07:57:00,43.5,43.5,29.88,WSW,253,0.0,1.0,100,0.00,,,0.01,Wunderground v.1.15,2013-10-03 14:57:00,
2013-10-03 08:02:00,44.5,44.5,29.88,WSW,253,0.0,0.0,100,0.00,,,0.01,Wunderground v.1.15,2013-10-03 15:02:00,
2013-10-03 08:07:00,45.1,45.1,29.88,WSW,253,0.0,1.0,100,0.00,,,0.01,Wunderground v.1.15,2013-10-03 15:07:00,
2013-10-03 08:12:00,46.0,46.0,29.88,WSW,253,0.0,0.0,100,0.00,,,0.01,Wunderground v.1.15,2013-10-03 15:12:00,
2013-10-03 08:17:00,46.5,46.5,29.89,WSW,253,0.0,1.0,100,0.00,,,0.01,Wunderground v.1.15,2013-10-03 15:17:00,
2013-10-03 08:22:00,47.4,47.4,29.89,WSW,253,0.0,0.0,100,0.00,,,0.01,Wunderground v.1.15,2013-10-03 15:22:00,
2013-10-03 08:27:00,48.2,48.2,29.89,South,176,0.0,1.0,100,0.00,,,0.01,Wunderground v.1.15,2013-10-03 15:27:00,
2013-10-03 08:32:00,48.8,48.8,29.89,South,176,0.0,0.0,100,0.00,,,0.01,Wunderground v.1.15,2013-10-03 15:32:00,
2013-10-03 08:37:00,49.9,49.9,29.89,South,176,0.0,0.0,100,0.00,,,0.01,Wunderground v.1.15,2013-10-03 15:37:00,
2013-10-03 08:42:00,51.0,51.0,29.89,South,176,0.0,0.0,100,0.00,,,0.01,Wunderground v.1.15,2013-10-03 15:42:00,
2013-10-03 08:47:00,51.7,51.7,29.89,South,176,0.0,0.0,100,0.00,,,0.01,Wunderground v.1.15,2013-10-03 15:47:00,
2013-10-03 08:52:00,52.5,52.5,29.89,South,176,0.0,0.0,100,0.00,,,0.01,Wunderground v.1.15,2013-10-03 15:52:00,
2013-10-03 08:57:00,53.3,53.3,29.89,SSE,162,0.0,1.0,100,0.00,,,0.01,Wunderground v.1.15,2013-10-03 15:57:00,
2013-10-03 09:02:00,54.2,54.2,29.89,SSE,155,0.0,1.0,100,0.00,,,0.01,Wunderground v.1.15,2013-10-03 16:02:00,
2013-10-03 09:07:00,54.8,54.5,29.89,SSE,155,0.0,1.0,99,0.00,,,0.01,Wunderground v.1.15,2013-10-03 16:07:00,
2013-10-03 09:12:00,55.6,54.5,29.89,ESE,122,0.0,2.0,96,0.00,,,0.01,Wunderground v.1.15,2013-10-03 16:12:00,
2013-10-03 09:17:00,55.9,54.2,29.89,SE,131,0.0,2.0,94,0.00,,,0.01,Wunderground v.1.15,2013-10-03 16:17:00,
2013-10-03 09:22:00,56.6,54.3,29.89,SE,131,0.0,2.0,92,0.00,,,0.01,Wunderground v.1.15,2013-10-03 16:22:00,
2013-10-03 09:27:00,57.6,54.7,29.89,SE,131,1.0,2.0,90,0.00,,,0.01,Wunderground v.1.15,2013-10-03 16:27:00,
2013-10-03 09:33:00,59.0,55.4,29.89,SSW,203,0.0,3.0,88,0.00,,,0.01,Wunderground v.1.15,2013-10-03 16:33:00,
2013-10-03 09:38:00,60.2,55.3,29.89,SSW,203,0.0,3.0,84,0.00,,,0.01,Wunderground v.1.15,2013-10-03 16:38:00,
2013-10-03 09:43:00,61.2,54.6,29.89,West,265,3.0,3.0,79,0.00,,,0.01,Wunderground v.1.15,2013-10-03 16:43:00,
2013-10-03 09:48:00,61.3,53.3,29.90,WNW,302,0.0,4.0,75,0.00,,,0.01,Wunderground v.1.15,2013-10-03 16:48:00,
2013-10-03 09:53:00,61.6,52.5,29.90,NNW,331,2.0,6.0,72,0.00,,,0.01,Wunderground v.1.15,2013-10-03 16:53:00,
2013-10-03 09:58:00,61.6,52.1,29.90,SSE,167,0.0,6.0,71,0.00,,,0.01,Wunderground v.1.15,2013-10-03 16:58:00,
2013-10-03 10:03:00,61.8,51.9,29.90,NW,304,0.0,2.0,70,0.00,,,0.01,Wunderground v.1.15,2013-10-03 17:03:00,
2013-10-03 10:08:00,62.1,51.4,29.90,WNW,290,1.0,5.0,68,0.00,,,0.01,Wunderground v.1.15,2013-10-03 17:08:00,
2013-10-03 10:13:00,62.3,51.6,29.90,ESE,110,0.0,1.0,68,0.00,,,0.01,Wunderground v.1.15,2013-10-03 17:13:00,
2013-10-03 10:18:00,63.1,52.0,29.91,South,183,2.0,2.0,67,0.00,,,0.01,Wunderground v.1.15,2013-10-03 17:18:00,
2013-10-03 10:23:00,63.1,52.0,29.91,West,267,0.0,4.0,67,0.00,,,0.01,Wunderground v.1.15,2013-10-03 17:23:00,
2013-10-03 10:28:00,63.2,51.2,29.91,SSE,157,1.0,4.0,65,0.00,,,0.01,Wunderground v.1.15,2013-10-03 17:28:00,
2013-10-03 10:33:00,63.7,51.7,29.91,NW,314,1.0,5.0,65,0.00,,,0.01,Wunderground v.1.15,2013-10-03 17:33:00,
2013-10-03 10:38:00,64.2,52.2,29.91,West,280,2.0,5.0,65,0.00,,,0.01,Wunderground v.1.15,2013-10-03 17:38:00,
2013-10-03 10:43:00,63.9,51.5,29.91,South,178,1.0,5.0,64,0.00,,,0.01,Wunderground v.1.15,2013-10-03 17:43:00,
2013-10-03 10:48:00,64.3,51.9,29.90,South,170,0.0,5.0,64,0.00,,,0.01,Wunderground v.1.15,2013-10-03 17:48:00,
2013-10-03 10:53:00,64.5,52.5,29.90,West,269,2.0,9.0,65,0.00,,,0.01,Wunderground v.1.15,2013-10-03 17:53:00,
2013-10-03 10:58:00,64.3,52.7,29.90,SW,217,0.0,9.0,66,0.00,,,0.01,Wunderground v.1.15,2013-10-03 17:58:00,
2013-10-03 11:03:00,64.0,52.0,29.90,West,278,4.0,7.0,65,0.00,,,0.01,Wunderground v.1.15,2013-10-03 18:03:00,
2013-10-03 11:08:00,63.9,51.1,29.90,WNW,300,1.0,7.0,63,0.00,,,0.01,Wunderground v.1.15,2013-10-03 18:08:00,
2013-10-03 11:13:00,64.5,49.8,29.90,West,274,2.0,5.0,59,0.00,,,0.01,Wunderground v.1.15,2013-10-03 18:13:00,
2013-10-03 11:18:00,65.5,51.2,29.90,SSW,210,1.0,5.0,60,0.00,,,0.01,Wunderground v.1.15,2013-10-03 18:18:00,
2013-10-03 11:23:00,66.3,50.6,29.90,WSW,250,0.0,5.0,57,0.00,,,0.01,Wunderground v.1.15,2013-10-03 18:23:00,
2013-10-03 11:28:00,67.1,52.3,29.90,South,190,2.0,5.0,59,0.00,,,0.01,Wunderground v.1.15,2013-10-03 18:28:00,
2013-10-03 11:33:00,67.1,54.1,29.89,South,177,2.0,2.0,63,0.00,,,0.01,Wunderground v.1.15,2013-10-03 18:33:00,
2013-10-03 11:38:00,67.1,53.6,29.89,South,182,0.0,3.0,62,0.00,,,0.01,Wunderground v.1.15,2013-10-03 18:38:00,
2013-10-03 11:43:00,66.9,53.5,29.89,WSW,256,1.0,4.0,62,0.00,,,0.01,Wunderground v.1.15,2013-10-03 18:43:00,
2013-10-03 11:48:00,66.4,52.5,29.89,South,176,2.0,4.0,61,0.00,,,0.01,Wunderground v.1.15,2013-10-03 18:48:00,
2013-10-03 11:53:00,65.3,52.8,29.89,West,266,6.0,6.0,64,0.00,,,0.01,Wunderground v.1.15,2013-10-03 18:53:00,
2013-10-03 11:58:00,64.5,52.5,29.89,SSW,193,2.0,6.0,65,0.00,,,0.01,Wunderground v.1.15,2013-10-03 18:58:00,
2013-10-03 12:03:00,64.5,52.0,29.89,West,259,3.0,3.0,64,0.00,,,0.01,Wunderground v.1.15,2013-10-03 19:03:00,
2013-10-03 12:08:00,64.7,51.8,29.89,WNW,288,0.0,6.0,63,0.00,,,0.01,Wunderground v.1.15,2013-10-03 19:08:00,
2013-10-03 12:13:00,65.3,52.4,29.89,West,273,1.0,3.0,63,0.00,,,0.01,Wunderground v.1.15,2013-10-03 19:13:00,
2013-10-03 12:18:00,66.4,51.2,29.89,WSW,254,1.0,6.0,58,0.00,,,0.01,Wunderground v.1.15,2013-10-03 19:18:00,
2013-10-03 12:23:00,65.6,50.4,29.89,West,268,2.0,7.0,58,0.00,,,0.01,Wunderground v.1.15,2013-10-03 19:23:00,
2013-10-03 12:28:00,65.3,50.6,29.89,WSW,257,5.0,7.0,59,0.00,,,0.01,Wunderground v.1.15,2013-10-03 19:28:00,
2013-10-03 12:33:00,65.5,50.3,29.88,West,269,0.0,6.0,58,0.00,,,0.01,Wunderground v.1.15,2013-10-03 19:33:00,
2013-10-03 12:38:00,66.4,50.7,29.88,West,281,0.0,8.0,57,0.00,,,0.01,Wunderground v.1.15,2013-10-03 19:38:00,
2013-10-03 12:43:00,67.3,50.6,29.88,North,354,2.0,5.0,55,0.00,,,0.01,Wunderground v.1.15,2013-10-03 19:43:00,
2013-10-03 12:48:00,67.4,51.2,29.87,NNW,346,3.0,6.0,56,0.00,,,0.01,Wunderground v.1.15,2013-10-03 19:48:00,
2013-10-03 12:53:00,67.8,49.5,29.87,West,262,4.0,4.0,52,0.00,,,0.01,Wunderground v.1.15,2013-10-03 19:53:00,
2013-10-03 12:58:00,66.6,50.4,29.87,WNW,300,1.0,7.0,56,0.00,,,0.01,Wunderground v.1.15,2013-10-03 19:58:00,
2013-10-03 13:03:00,66.0,51.7,29.87,North,359,2.0,5.0,60,0.00,,,0.01,Wunderground v.1.15,2013-10-03 20:03:00,
2013-10-03 13:08:00,65.8,51.5,29.87,NNE,27,0.0,6.0,60,0.00,,,0.01,Wunderground v.1.15,2013-10-03 20:08:00,
2013-10-03 13:13:00,65.2,51.8,29.87,WNW,292,0.0,5.0,62,0.00,,,0.01,Wunderground v.1.15,2013-10-03 20:13:00,
2013-10-03 13:18:00,64.8,51.9,29.86,SSW,208,2.0,5.0,63,0.00,,,0.01,Wunderground v.1.15,2013-10-03 20:18:00,
2013-10-03 13:23:00,65.0,51.7,29.86,WSW,241,3.0,6.0,62,0.00,,,0.01,Wunderground v.1.15,2013-10-03 20:23:00,
2013-10-03 13:28:00,65.2,51.4,29.86,WNW,293,1.0,6.0,61,0.00,,,0.01,Wunderground v.1.15,2013-10-03 20:28:00,
2013-10-03 13:33:00,65.2,51.8,29.86,WSW,255,3.0,7.0,62,0.00,,,0.01,Wunderground v.1.15,2013-10-03 20:33:00,
2013-10-03 13:38:00,64.8,51.5,29.86,SW,233,1.0,7.0,62,0.00,,,0.01,Wunderground v.1.15,2013-10-03 20:38:00,
2013-10-03 13:43:00,65.0,51.2,29.86,East,84,1.0,5.0,61,0.00,,,0.01,Wunderground v.1.15,2013-10-03 20:43:00,
2013-10-03 13:48:00,65.0,51.2,29.85,ESE,115,2.0,6.0,61,0.00,,,0.01,Wunderground v.1.15,2013-10-03 20:48:00,
2013-10-03 13:53:00,64.8,51.0,29.85,North,0,1.0,6.0,61,0.00,,,0.01,Wunderground v.1.15,2013-10-03 20:53:00,
2013-10-03 13:58:00,64.2,50.9,29.85,West,274,3.0,9.0,62,0.00,,,0.01,Wunderground v.1.15,2013-10-03 20:58:00,
2013-10-03 14:03:00,63.9,50.6,29.84,SW,216,1.0,6.0,62,0.00,,,0.01,Wunderground v.1.15,2013-10-03 21:03:00,
2013-10-03 14:08:00,63.9,51.1,29.84,SSW,195,2.0,6.0,63,0.00,,,0.01,Wunderground v.1.15,2013-10-03 21:08:00,
2013-10-03 14:14:00,63.4,51.0,29.84,West,279,2.0,6.0,64,0.00,,,0.01,Wunderground v.1.15,2013-10-03 21:14:00,
2013-10-03 14:19:00,63.5,50.7,29.84,ENE,65,2.0,8.0,63,0.00,,,0.01,Wunderground v.1.15,2013-10-03 21:19:00,
2013-10-03 14:24:00,63.4,50.6,29.84,SSW,195,1.0,6.0,63,0.00,,,0.01,Wunderground v.1.15,2013-10-03 21:24:00,
2013-10-03 14:29:00,63.1,50.7,29.84,South,172,5.0,7.0,64,0.00,,,0.01,Wunderground v.1.15,2013-10-03 21:29:00,
2013-10-03 14:34:00,62.9,51.0,29.84,NW,314,2.0,9.0,65,0.00,,,0.01,Wunderground v.1.15,2013-10-03 21:34:00,
2013-10-03 14:39:00,62.6,51.1,29.84,West,261,1.0,9.0,66,0.00,,,0.01,Wunderground v.1.15,2013-10-03 21:39:00,
2013-10-03 14:44:00,62.9,51.4,29.84,SSE,167,1.0,4.0,66,0.00,,,0.01,Wunderground v.1.15,2013-10-03 21:44:00,
2013-10-03 14:49:00,63.1,51.1,29.83,SSE,162,2.0,4.0,65,0.00,,,0.01,Wunderground v.1.15,2013-10-03 21:49:00,
2013-10-03 14:54:00,62.6,51.1,29.83,NE,56,3.0,9.0,66,0.00,,,0.01,Wunderground v.1.15,2013-10-03 21:54:00,
2013-10-03 14:59:00,62.0,51.3,29.83,WSW,237,0.0,9.0,68,0.00,,,0.01,Wunderground v.1.15,2013-10-03 21:59:00,
2013-10-03 15:04:00,61.5,50.8,29.83,NE,41,0.0,5.0,68,0.00,,,0.01,Wunderground v.1.15,2013-10-03 22:04:00,
2013-10-03 15:09:00,61.2,50.9,29.83,ESE,108,1.0,7.0,69,0.00,,,0.01,Wunderground v.1.15,2013-10-03 22:09:00,
2013-10-03 15:14:00,60.9,50.7,29.83,West,262,0.0,3.0,69,0.00,,,0.01,Wunderground v.1.15,2013-10-03 22:14:00,
2013-10-03 15:19:00,61.0,50.8,29.83,WNW,299,0.0,6.0,69,0.00,,,0.01,Wunderground v.1.15,2013-10-03 22:19:00,
2013-10-03 15:24:00,60.7,50.9,29.83,SW,224,1.0,6.0,70,0.00,,,0.01,Wunderground v.1.15,2013-10-03 22:24:00,
2013-10-03 15:29:00,60.2,50.8,29.83,SE,134,4.0,6.0,71,0.00,,,0.01,Wunderground v.1.15,2013-10-03 22:29:00,
2013-10-03 15:34:00,59.9,50.8,29.83,South,179,3.0,7.0,72,0.00,,,0.01,Wunderground v.1.15,2013-10-03 22:34:00,
2013-10-03 15:39:00,59.9,50.8,29.83,NNW,343,4.0,11.0,72,0.00,,,0.01,Wunderground v.1.15,2013-10-03 22:39:00,
2013-10-03 15:44:00,59.8,51.1,29.83,SE,127,0.0,5.0,73,0.00,,,0.01,Wunderground v.1.15,2013-10-03 22:44:00,
2013-10-03 15:49:00,59.9,51.2,29.83,NW,306,0.0,10.0,73,0.00,,,0.01,Wunderground v.1.15,2013-10-03 22:49:00,
2013-10-03 15:54:00,60.2,51.1,29.83,North,359,3.0,6.0,72,0.00,,,0.01,Wunderground v.1.15,2013-10-03 22:54:00,
2013-10-03 15:59:00,60.1,51.0,29.83,North,1,3.0,8.0,72,0.00,,,0.01,Wunderground v.1.15,2013-10-03 22:59:00,
2013-10-03 16:04:00,59.6,50.9,29.83,East,91,0.0,5.0,73,0.00,,,0.01,Wunderground v.1.15,2013-10-03 23:04:00,
2013-10-03 16:09:00,59.3,51.0,29.83,NNW,339,6.0,11.0,74,0.00,,,0.01,Wunderground v.1.15,2013-10-03 23:09:00,
2013-10-03 16:14:00,58.9,51.0,29.83,ESE,116,0.0,6.0,75,0.00,,,0.01,Wunderground v.1.15,2013-10-03 23:14:00,
2013-10-03 16:19:00,58.6,50.7,29.82,WSW,247,0.0,6.0,75,0.00,,,0.01,Wunderground v.1.15,2013-10-03 23:19:00,
2013-10-03 16:24:00,58.4,50.9,29.82,SE,134,1.0,4.0,76,0.00,,,0.01,Wunderground v.1.15,2013-10-03 23:24:00,
2013-10-03 16:29:00,58.1,50.6,29.82,SW,214,1.0,7.0,76,0.00,,,0.01,Wunderground v.1.15,2013-10-03 23:29:00,
2013-10-03 16:34:00,58.0,50.8,29.82,South,173,0.0,2.0,77,0.00,,,0.01,Wunderground v.1.15,2013-10-03 23:34:00,
2013-10-03 16:39:00,57.6,50.4,29.82,NW,309,3.0,14.0,77,0.00,,,0.01,Wunderground v.1.15,2013-10-03 23:39:00,
2013-10-03 16:44:00,57.5,50.7,29.82,North,1,0.0,7.0,78,0.00,,,0.01,Wunderground v.1.15,2013-10-03 23:44:00,
2013-10-03 16:49:00,57.5,50.7,29.81,West,266,1.0,7.0,78,0.00,,,0.01,Wunderground v.1.15,2013-10-03 23:49:00,
2013-10-03 16:54:00,57.3,50.5,29.81,WSW,242,0.0,3.0,78,0.00,,,0.01,Wunderground v.1.15,2013-10-03 23:54:00,
2013-10-03 16:59:00,57.3,50.5,29.81,North,0,4.0,4.0,78,0.00,,,0.01,Wunderground v.1.15,2013-10-03 23:59:00,
2013-10-03 17:04:00,57.2,50.4,29.81,NNW,332,0.0,6.0,78,0.00,,,0.01,Wunderground v.1.15,2013-10-04 00:04:00,
2013-10-03 17:09:00,57.2,50.4,29.81,NNE,20,1.0,6.0,78,0.00,,,0.01,Wunderground v.1.15,2013-10-04 00:09:00,
2013-10-03 17:14:00,57.0,50.2,29.81,WSW,247,0.0,4.0,78,0.00,,,0.01,Wunderground v.1.15,2013-10-04 00:14:00,
2013-10-03 17:19:00,56.7,50.3,29.81,ESE,122,0.0,4.0,79,0.00,,,0.01,Wunderground v.1.15,2013-10-04 00:19:00,
2013-10-03 17:24:00,56.6,50.2,29.81,NW,316,3.0,5.0,79,0.00,,,0.01,Wunderground v.1.15,2013-10-04 00:24:00,
2013-10-03 17:29:00,56.3,49.9,29.81,West,269,0.0,5.0,79,0.00,,,0.01,Wunderground v.1.15,2013-10-04 00:29:00,
2013-10-03 17:34:00,56.2,49.8,29.81,NNW,336,0.0,7.0,79,0.00,,,0.01,Wunderground v.1.15,2013-10-04 00:34:00,
2013-10-03 17:39:00,56.0,49.6,29.81,West,262,0.0,7.0,79,0.00,,,0.01,Wunderground v.1.15,2013-10-04 00:39:00,
2013-10-03 17:44:00,55.7,49.3,29.81,West,275,0.0,3.0,79,0.00,,,0.01,Wunderground v.1.15,2013-10-04 00:44:00,
2013-10-03 17:49:00,55.6,49.5,29.81,NNE,27,0.0,3.0,80,0.00,,,0.01,Wunderground v.1.15,2013-10-04 00:49:00,
2013-10-03 17:54:00,55.6,49.5,29.81,NNE,23,0.0,2.0,80,0.00,,,0.01,Wunderground v.1.15,2013-10-04 00:54:00,
2013-10-03 17:59:00,55.4,49.3,29.81,West,264,2.0,3.0,80,0.00,,,0.01,Wunderground v.1.15,2013-10-04 00:59:00,
2013-10-03 18:04:00,55.3,49.2,29.80,West,264,1.0,3.0,80,0.00,,,0.01,Wunderground v.1.15,2013-10-04 01:04:00,
2013-10-03 18:09:00,55.1,49.0,29.80,West,268,0.0,3.0,80,0.00,,,0.01,Wunderground v.1.15,2013-10-04 01:09:00,
2013-10-03 18:14:00,55.1,49.0,29.80,West,268,0.0,1.0,80,0.00,,,0.01,Wunderground v.1.15,2013-10-04 01:14:00,
2013-10-03 18:19:00,55.0,48.9,29.80,West,269,0.0,0.0,80,0.00,,,0.01,Wunderground v.1.15,2013-10-04 01:19:00,
2013-10-03 18:25:00,54.8,48.7,29.80,West,269,0.0,2.0,80,0.00,,,0.01,Wunderground v.1.15,2013-10-04 01:25:00,
2013-10-03 18:30:00,54.7,48.6,29.80,West,269,0.0,0.0,80,0.00,,,0.01,Wunderground v.1.15,2013-10-04 01:30:00,
2013-10-03 18:35:00,54.5,48.8,29.80,West,269,0.0,0.0,81,0.00,,,0.01,Wunderground v.1.15,2013-10-04 01:35:00,
2013-10-03 18:40:00,54.4,48.7,29.80,West,269,0.0,0.0,81,0.00,,,0.01,Wunderground v.1.15,2013-10-04 01:40:00,
2013-10-03 18:45:00,54.1,48.4,29.80,West,269,0.0,0.0,81,0.00,,,0.01,Wunderground v.1.15,2013-10-04 01:45:00,
2013-10-03 18:50:00,53.8,48.4,29.80,West,269,0.0,0.0,82,0.00,,,0.01,Wunderground v.1.15,2013-10-04 01:50:00,
2013-10-03 18:55:00,53.5,48.1,29.80,West,269,0.0,0.0,82,0.00,,,0.01,Wunderground v.1.15,2013-10-04 01:55:00,
2013-10-03 18:59:00,53.2,47.8,29.80,West,269,0.0,0.0,82,0.00,,,0.01,Wunderground v.1.15,2013-10-04 01:59:00,
2013-10-03 19:04:00,52.8,47.8,29.80,West,269,0.0,0.0,83,0.00,,,0.01,Wunderground v.1.15,2013-10-04 02:04:00,
2013-10-03 19:10:00,52.5,47.8,29.80,West,269,0.0,0.0,84,0.00,,,0.01,Wunderground v.1.15,2013-10-04 02:10:00,
2013-10-03 19:15:00,52.2,47.5,29.80,West,269,0.0,0.0,84,0.00,,,0.01,Wunderground v.1.15,2013-10-04 02:15:00,
2013-10-03 19:19:00,51.9,47.5,29.81,West,269,1.0,1.0,85,0.00,,,0.01,Wunderground v.1.15,2013-10-04 02:19:00,
2013-10-03 19:24:00,51.7,47.6,29.81,West,269,0.0,1.0,86,0.00,,,0.01,Wunderground v.1.15,2013-10-04 02:24:00,
2013-10-03 19:30:00,51.6,47.2,29.81,West,269,0.0,0.0,85,0.00,,,0.01,Wunderground v.1.15,2013-10-04 02:30:00,
2013-10-03 19:35:00,51.3,47.3,29.81,West,269,0.0,0.0,86,0.00,,,0.01,Wunderground v.1.15,2013-10-04 02:35:00,
2013-10-03 19:40:00,51.1,47.1,29.81,West,269,0.0,0.0,86,0.00,,,0.01,Wunderground v.1.15,2013-10-04 02:40:00,
2013-10-03 19:45:00,51.0,47.0,29.81,West,269,0.0,0.0,86,0.00,,,0.01,Wunderground v.1.15,2013-10-04 02:45:00,
2013-10-03 19:50:00,50.8,46.8,29.81,West,269,0.0,0.0,86,0.00,,,0.01,Wunderground v.1.15,2013-10-04 02:50:00,
2013-10-03 19:55:00,50.8,47.1,29.81,West,269,0.0,0.0,87,0.00,,,0.01,Wunderground v.1.15,2013-10-04 02:55:00,
2013-10-03 20:00:00,50.7,47.0,29.81,West,269,0.0,0.0,87,0.00,,,0.01,Wunderground v.1.15,2013-10-04 03:00:00,
2013-10-03 20:05:00,50.7,47.0,29.81,West,269,0.0,0.0,87,0.00,,,0.01,Wunderground v.1.15,2013-10-04 03:05:00,
2013-10-03 20:10:00,50.5,46.8,29.81,West,269,0.0,0.0,87,0.00,,,0.01,Wunderground v.1.15,2013-10-04 03:10:00,
2013-10-03 20:15:00,50.5,46.8,29.82,West,269,0.0,0.0,87,0.00,,,0.01,Wunderground v.1.15,2013-10-04 03:15:00,
2013-10-03 20:20:00,50.4,46.7,29.82,West,269,0.0,0.0,87,0.00,,,0.01,Wunderground v.1.15,2013-10-04 03:20:00,
2013-10-03 20:25:00,50.4,46.7,29.82,West,269,0.0,0.0,87,0.00,,,0.01,Wunderground v.1.15,2013-10-04 03:25:00,
2013-10-03 20:30:00,50.2,46.5,29.82,West,269,0.0,0.0,87,0.00,,,0.01,Wunderground v.1.15,2013-10-04 03:30:00,
2013-10-03 20:35:00,50.4,47.0,29.82,West,269,0.0,2.0,88,0.00,,,0.01,Wunderground v.1.15,2013-10-04 03:35:00,
2013-10-03 20:40:00,50.7,47.3,29.82,West,269,0.0,1.0,88,0.00,,,0.01,Wunderground v.1.15,2013-10-04 03:40:00,
2013-10-03 20:45:00,50.8,47.4,29.82,West,269,0.0,1.0,88,0.00,,,0.01,Wunderground v.1.15,2013-10-04 03:45:00,
2013-10-03 20:50:00,51.0,47.6,29.82,West,269,1.0,1.0,88,0.00,,,0.01,Wunderground v.1.15,2013-10-04 03:50:00,
2013-10-03 20:55:00,51.1,47.4,29.82,West,269,2.0,3.0,87,0.00,,,0.01,Wunderground v.1.15,2013-10-04 03:55:00,
2013-10-03 21:00:00,51.1,47.4,29.82,ENE,72,0.0,1.0,87,0.00,,,0.01,Wunderground v.1.15,2013-10-04 04:00:00,
2013-10-03 21:34:00,54.2,43.9,29.83,ENE,72,0.0,2.0,68,0.00,,,0.01,Wunderground v.1.15,2013-10-04 04:34:00,
2013-10-03 21:35:00,54.4,44.1,29.83,ENE,72,0.0,2.0,68,0.00,,,0.01,Wunderground v.1.15,2013-10-04 04:35:00,
2013-10-03 21:40:00,56.2,42.9,29.83,ENE,72,1.0,2.0,61,0.00,,,0.01,Wunderground v.1.15,2013-10-04 04:40:00,
2013-10-03 21:42:00,56.7,41.2,29.83,ENE,72,1.0,2.0,56,0.00,,,0.01,Wunderground v.1.15,2013-10-04 04:42:00,
2013-10-03 21:44:00,57.3,40.3,29.83,ENE,72,0.0,2.0,53,0.00,,,0.01,Wunderground v.1.15,2013-10-04 04:44:00,
2013-10-03 21:47:00,58.1,40.6,29.82,ENE,72,2.0,3.0,52,0.00,,,0.01,Wunderground v.1.15,2013-10-04 04:47:00,
2013-10-03 21:48:00,58.3,39.7,29.82,WSW,245,4.0,4.0,50,0.00,,,0.01,Wunderground v.1.15,2013-10-04 04:48:00,
2013-10-03 21:50:00,58.9,39.2,29.82,WSW,255,0.0,1.0,48,0.00,,,0.01,Wunderground v.1.15,2013-10-04 04:50:00,
2013-10-03 21:55:00,60.1,38.7,29.82,WSW,255,0.0,1.0,45,0.00,,,0.01,Wunderground v.1.15,2013-10-04 04:55:00,
2013-10-03 21:56:00,60.2,38.8,29.82,WSW,255,0.0,1.0,45,0.00,,,0.01,Wunderground v.1.15,2013-10-04 04:56:00,
2013-10-03 22:00:00,60.7,38.6,29.83,WSW,255,0.0,0.0,44,0.00,,,0.01,Wunderground v.1.15,2013-10-04 05:00:00,
2013-10-03 22:06:00,60.9,39.4,29.83,WSW,255,0.0,1.0,45,0.00,,,0.01,Wunderground v.1.15,2013-10-04 05:06:00,
2013-10-03 22:09:00,61.0,39.5,29.83,WSW,258,0.0,2.0,45,0.00,,,0.01,Wunderground v.1.15,2013-10-04 05:09:00,
2013-10-03 22:14:00,61.0,40.1,29.83,WSW,258,0.0,2.0,46,0.00,,,0.01,Wunderground v.1.15,2013-10-04 05:14:00,
2013-10-03 22:15:00,61.0,40.1,29.83,WSW,258,1.0,2.0,46,0.00,,,0.01,Wunderground v.1.15,2013-10-04 05:15:00,
2013-10-03 22:16:00,60.9,39.4,29.83,WSW,258,0.0,2.0,45,0.00,,,0.01,Wunderground v.1.15,2013-10-04 05:16:00,
2013-10-03 22:18:00,60.9,39.4,29.83,WSW,258,0.0,2.0,45,0.00,,,0.01,Wunderground v.1.15,2013-10-04 05:18:00,
2013-10-03 22:21:00,60.9,39.4,29.83,WSW,258,0.0,1.0,45,0.00,,,0.01,Wunderground v.1.15,2013-10-04 05:21:00,
2013-10-03 22:24:00,60.9,38.8,29.83,WSW,258,1.0,1.0,44,0.00,,,0.01,Wunderground v.1.15,2013-10-04 05:24:00,
2013-10-03 22:26:00,60.9,38.8,29.83,WSW,258,0.0,1.0,44,0.00,,,0.01,Wunderground v.1.15,2013-10-04 05:26:00,
2013-10-03 22:27:00,61.0,38.3,29.83,WSW,258,0.0,1.0,43,0.00,,,0.01,Wunderground v.1.15,2013-10-04 05:27:00,
2013-10-03 22:32:00,61.2,38.5,29.83,WSW,258,0.0,1.0,43,0.00,,,0.01,Wunderground v.1.15,2013-10-04 05:32:00,
2013-10-03 22:37:00,61.2,38.5,29.83,WSW,258,0.0,2.0,43,0.00,,,0.01,Wunderground v.1.15,2013-10-04 05:37:00,
2013-10-03 22:42:00,61.2,38.5,29.83,WSW,258,0.0,1.0,43,0.00,,,0.01,Wunderground v.1.15,2013-10-04 05:42:00,
2013-10-03 22:47:00,61.2,37.9,29.83,West,271,2.0,3.0,42,0.00,,,0.01,Wunderground v.1.15,2013-10-04 05:47:00,
2013-10-03 22:52:00,61.3,37.4,29.83,WSW,249,3.0,3.0,41,0.00,,,0.01,Wunderground v.1.15,2013-10-04 05:52:00,
2013-10-03 22:57:00,61.6,37.0,29.83,SW,224,0.0,4.0,40,0.00,,,0.01,Wunderground v.1.15,2013-10-04 05:57:00,
2013-10-03 23:02:00,61.8,35.9,29.83,WNW,285,0.0,3.0,38,0.00,,,0.01,Wunderground v.1.15,2013-10-04 06:02:00,
2013-10-03 23:07:00,62.3,36.4,29.83,WNW,285,0.0,3.0,38,0.00,,,0.01,Wunderground v.1.15,2013-10-04 06:07:00,
2013-10-03 23:12:00,62.4,35.8,29.83,WSW,245,0.0,1.0,37,0.00,,,0.01,Wunderground v.1.15,2013-10-04 06:12:00,
2013-10-03 23:17:00,62.6,35.9,29.82,WSW,245,0.0,3.0,37,0.00,,,0.01,Wunderground v.1.15,2013-10-04 06:17:00,
2013-10-03 23:22:00,62.4,36.4,29.82,WSW,245,0.0,2.0,38,0.00,,,0.01,Wunderground v.1.15,2013-10-04 06:22:00,
2013-10-03 23:27:00,62.3,35.7,29.82,WSW,245,0.0,2.0,37,0.00,,,0.01,Wunderground v.1.15,2013-10-04 06:27:00,
2013-10-03 23:32:00,62.0,36.1,29.83,WSW,245,0.0,0.0,38,0.00,,,0.01,Wunderground v.1.15,2013-10-04 06:32:00,
2013-10-03 23:38:00,61.6,35.7,29.83,WSW,245,0.0,2.0,38,0.00,,,0.01,Wunderground v.1.15,2013-10-04 06:38:00,
2013-10-03 23:43:00,61.3,35.5,29.83,WSW,245,1.0,3.0,38,0.00,,,0.01,Wunderground v.1.15,2013-10-04 06:43:00,
2013-10-03 23:48:00,61.2,34.7,29.83,WSW,245,0.0,3.0,37,0.00,,,0.01,Wunderground v.1.15,2013-10-04 06:48:00,
2013-10-03 23:53:00,61.6,34.4,29.83,WSW,245,0.0,1.0,36,0.00,,,0.01,Wunderground v.1.15,2013-10-04 06:53:00,
2013-10-03 23:58:00,62.1,34.1,29.83,WSW,245,1.0,3.0,35,0.00,,,0.01,Wunderground v.1.15,2013-10-04 06:58:00,